Time;durP1;ratioP1;P1;durP2;ratioP2;P2;SDS_P1;SDS_P2;PMS_P1;PMS_P2;Temp;Humidity;BMP_temperature;BMP_pressure;BME280_temperature;BME280_humidity;BME280_pressure;Samples;Min_cycle;Max_cycle;Signal;HPM_P1;HPM_P2
2023/12/02 00:01:52;;;;;;;95.60;55.97;;;3.40;50.40;;;;;;5089215;28;20204;-87
2023/12/02 00:04:18;;;;;;;94.83;56.33;;;3.40;50.60;;;;;;5081480;28;20172;-88
2023/12/02 00:06:44;;;;;;;91.83;54.07;;;3.40;50.50;;;;;;5066128;28;20186;-88
2023/12/02 00:09:10;;;;;;;90.17;54.77;;;3.40;50.60;;;;;;5081749;28;20304;-88
2023/12/02 00:11:36;;;;;;;100.17;56.30;;;3.30;50.70;;;;;;5103214;28;20188;-87
2023/12/02 00:14:02;;;;;;;100.27;56.77;;;3.40;50.80;;;;;;5103560;28;20187;-87
2023/12/02 00:16:28;;;;;;;101.03;58.80;;;3.30;50.80;;;;;;5096484;28;20180;-88
2023/12/02 00:18:54;;;;;;;100.33;57.60;;;3.40;50.90;;;;;;5100557;28;20239;-87
2023/12/02 00:21:20;;;;;;;99.57;55.70;;;3.40;50.70;;;;;;5103024;28;20178;-87
2023/12/02 00:23:48;;;;;;;97.63;56.63;;;3.50;50.70;;;;;;5100148;28;20185;-87
2023/12/02 00:26:14;;;;;;;99.43;55.20;;;3.40;50.80;;;;;;5096869;28;20188;-87
2023/12/02 00:28:40;;;;;;;100.90;56.60;;;3.40;50.60;;;;;;5095037;28;20192;-87
2023/12/02 00:31:06;;;;;;;100.40;56.77;;;3.40;50.70;;;;;;5104993;28;20190;-87
2023/12/02 00:33:32;;;;;;;96.43;55.53;;;3.40;50.60;;;;;;5099510;28;20645;-87
2023/12/02 00:35:57;;;;;;;103.13;56.30;;;3.40;50.40;;;;;;5103905;28;20169;-87
2023/12/02 00:38:23;;;;;;;100.87;58.23;;;3.50;50.50;;;;;;5097777;28;20303;-87
2023/12/02 00:40:49;;;;;;;103.33;57.80;;;3.50;50.60;;;;;;5095852;28;20189;-87
2023/12/02 00:43:15;;;;;;;100.80;60.27;;;3.30;51.00;;;;;;5096573;28;20215;-87
2023/12/02 00:45:40;;;;;;;103.10;59.27;;;3.30;50.80;;;;;;5068612;28;20197;-87
2023/12/02 00:48:06;;;;;;;109.50;63.77;;;3.40;50.80;;;;;;5087719;28;20181;-87
2023/12/02 00:50:32;;;;;;;110.27;62.23;;;3.40;50.60;;;;;;5070667;28;20177;-86
2023/12/02 00:52:58;;;;;;;114.60;63.50;;;3.50;50.80;;;;;;5070293;28;20177;-87
2023/12/02 00:55:23;;;;;;;109.47;66.33;;;3.40;50.60;;;;;;5071325;28;20576;-87
2023/12/02 00:57:49;;;;;;;108.43;63.33;;;3.20;50.50;;;;;;5089773;28;20209;-88
2023/12/02 01:00:15;;;;;;;112.93;64.33;;;3.50;50.80;;;;;;5103699;28;20671;-87
2023/12/02 01:02:42;;;;;;;110.60;64.63;;;3.40;50.60;;;;;;5086364;28;20281;-87
2023/12/02 01:05:08;;;;;;;109.13;63.83;;;3.40;50.60;;;;;;5089047;28;20185;-87
2023/12/02 01:07:34;;;;;;;108.97;65.80;;;3.50;50.60;;;;;;5078067;28;20200;-87
2023/12/02 01:10:00;;;;;;;106.87;63.60;;;3.40;50.40;;;;;;5102020;28;20177;-87
2023/12/02 01:12:26;;;;;;;112.90;62.17;;;3.50;50.40;;;;;;5101863;28;20249;-87
2023/12/02 01:14:52;;;;;;;113.60;62.20;;;3.40;50.40;;;;;;5067068;28;20202;-87
2023/12/02 01:17:18;;;;;;;108.63;63.93;;;3.40;50.40;;;;;;5080228;28;20224;-87
2023/12/02 01:19:44;;;;;;;107.97;61.60;;;3.30;50.40;;;;;;5072107;28;20177;-87
2023/12/02 01:22:10;;;;;;;112.93;63.67;;;3.30;50.50;;;;;;5096526;28;20180;-87
2023/12/02 01:24:36;;;;;;;114.43;65.57;;;3.30;50.50;;;;;;5069028;28;20197;-87
2023/12/02 01:27:01;;;;;;;116.60;62.77;;;3.30;50.40;;;;;;5098767;28;20181;-87
2023/12/02 01:29:27;;;;;;;120.27;65.50;;;3.30;50.30;;;;;;5096785;28;20176;-87
2023/12/02 01:31:53;;;;;;;116.33;64.60;;;3.30;50.30;;;;;;5095929;28;20177;-88
2023/12/02 01:34:19;;;;;;;107.13;62.90;;;3.20;50.40;;;;;;5085234;28;20181;-87
2023/12/02 01:36:45;;;;;;;107.20;62.97;;;3.30;50.60;;;;;;5082062;28;20212;-87
2023/12/02 01:39:15;;;;;;;116.77;64.23;;;3.30;50.60;;;;;;5082413;28;20184;-87
2023/12/02 01:41:41;;;;;;;107.97;60.03;;;3.30;50.70;;;;;;5093950;28;20279;-87
2023/12/02 01:44:07;;;;;;;97.70;58.13;;;3.40;50.70;;;;;;5092248;28;20169;-86
2023/12/02 01:46:32;;;;;;;103.27;61.43;;;3.40;50.70;;;;;;5071821;28;20176;-88
2023/12/02 01:48:59;;;;;;;114.90;65.70;;;3.40;50.70;;;;;;5080913;28;20200;-88
2023/12/02 01:51:26;;;;;;;106.47;61.53;;;3.50;50.80;;;;;;5083056;28;20185;-88
2023/12/02 01:53:52;;;;;;;114.37;63.63;;;3.40;50.60;;;;;;5069561;28;20177;-87
2023/12/02 01:56:19;;;;;;;115.40;62.47;;;3.30;50.60;;;;;;5076846;28;20231;-88
2023/12/02 01:58:50;;;;;;;112.17;62.00;;;3.30;50.60;;;;;;5094905;28;20239;-87
2023/12/02 02:01:16;;;;;;;106.27;61.73;;;3.40;50.80;;;;;;5069074;28;20189;-87
2023/12/02 02:03:42;;;;;;;112.07;61.50;;;3.40;50.60;;;;;;5098680;28;20184;-89
2023/12/02 02:06:11;;;;;;;101.77;59.80;;;3.40;50.60;;;;;;5102865;28;20180;-87
2023/12/02 02:08:37;;;;;;;108.10;60.57;;;3.50;50.60;;;;;;5083666;28;20184;-87
2023/12/02 02:11:02;;;;;;;107.20;60.90;;;3.50;50.40;;;;;;5080169;28;20543;-88
2023/12/02 02:13:28;;;;;;;107.20;59.63;;;3.50;50.40;;;;;;5069726;28;20205;-88
2023/12/02 02:15:54;;;;;;;105.10;59.70;;;3.40;50.50;;;;;;5067365;28;20206;-88
2023/12/02 02:18:20;;;;;;;104.27;60.87;;;3.40;50.60;;;;;;5064928;28;20204;-89
2023/12/02 02:20:53;;;;;;;110.97;61.80;;;3.40;50.60;;;;;;5079808;28;20171;-88
2023/12/02 02:23:21;;;;;;;105.10;61.23;;;3.50;50.60;;;;;;5099586;28;20203;-88
2023/12/02 02:25:49;;;;;;;113.77;61.77;;;3.50;50.80;;;;;;5095726;28;20207;-88
2023/12/02 02:28:26;;;;;;;107.87;61.07;;;3.40;51.30;;;;;;5101465;28;20216;-88
2023/12/02 02:30:52;;;;;;;118.23;64.17;;;3.40;50.90;;;;;;5099145;28;20191;-88
2023/12/02 02:33:18;;;;;;;113.33;61.27;;;3.40;50.80;;;;;;5082833;28;20181;-89
2023/12/02 02:35:45;;;;;;;114.40;62.97;;;3.50;50.80;;;;;;5086240;28;20212;-87
2023/12/02 02:38:11;;;;;;;118.57;62.90;;;3.50;50.80;;;;;;5078413;28;20215;-88
2023/12/02 02:40:37;;;;;;;111.10;59.97;;;3.30;50.60;;;;;;5093373;28;20177;-88
2023/12/02 02:43:03;;;;;;;114.87;62.73;;;3.40;50.70;;;;;;5066637;28;20185;-88
2023/12/02 02:45:29;;;;;;;112.13;62.70;;;3.50;50.60;;;;;;5101658;28;20180;-88
2023/12/02 02:47:55;;;;;;;120.33;63.80;;;3.60;50.80;;;;;;5085184;28;20215;-88
2023/12/02 02:50:21;;;;;;;115.83;63.47;;;3.50;50.70;;;;;;5076242;28;20180;-89
2023/12/02 02:52:47;;;;;;;115.27;62.00;;;3.50;50.70;;;;;;5093059;28;20180;-88
2023/12/02 02:55:13;;;;;;;112.80;62.67;;;3.50;50.80;;;;;;5065939;28;20225;-88
2023/12/02 02:57:38;;;;;;;120.20;65.37;;;3.40;50.60;;;;;;5082685;28;20273;-88
2023/12/02 03:00:09;;;;;;;125.17;65.60;;;3.40;50.80;;;;;;5101361;28;20172;-88
2023/12/02 03:02:38;;;;;;;124.60;63.90;;;3.40;50.90;;;;;;5098209;28;20195;-88
2023/12/02 03:05:05;;;;;;;135.50;67.10;;;3.40;51.00;;;;;;5084653;28;20605;-88
2023/12/02 03:07:31;;;;;;;125.67;65.90;;;3.40;50.90;;;;;;5094566;28;20184;-89
2023/12/02 03:09:57;;;;;;;127.40;68.50;;;3.40;50.80;;;;;;5081242;28;20182;-87
2023/12/02 03:12:24;;;;;;;124.60;63.57;;;3.40;50.90;;;;;;5097243;28;20203;-88
2023/12/02 03:14:50;;;;;;;130.90;65.87;;;3.50;51.00;;;;;;5096933;28;20210;-88
2023/12/02 03:17:16;;;;;;;124.13;62.13;;;3.40;51.10;;;;;;5087849;28;20216;-88
2023/12/02 03:19:42;;;;;;;132.57;66.40;;;3.50;51.20;;;;;;5073133;28;20577;-88
2023/12/02 03:22:07;;;;;;;122.93;60.43;;;3.40;51.20;;;;;;5099943;28;20208;-88
2023/12/02 03:24:33;;;;;;;129.87;65.97;;;3.50;51.20;;;;;;5101690;28;20201;-88
2023/12/02 03:26:59;;;;;;;126.67;60.00;;;3.50;51.20;;;;;;5080226;28;20220;-87
2023/12/02 03:29:24;;;;;;;122.90;60.20;;;3.50;51.10;;;;;;5077857;28;20236;-87
2023/12/02 03:31:50;;;;;;;130.97;61.77;;;3.40;51.70;;;;;;5070776;28;20188;-88
2023/12/02 03:34:16;;;;;;;124.53;60.27;;;3.50;51.30;;;;;;5092455;28;20276;-87
2023/12/02 03:36:41;;;;;;;121.07;60.60;;;3.40;51.30;;;;;;5081320;28;20187;-88
2023/12/02 03:39:07;;;;;;;130.37;61.60;;;3.50;51.30;;;;;;5086557;28;20204;-88
2023/12/02 03:41:33;;;;;;;124.07;61.20;;;3.50;51.30;;;;;;5080582;28;20206;-88
2023/12/02 03:43:59;;;;;;;134.43;62.77;;;3.50;51.30;;;;;;5089710;28;20186;-88
2023/12/02 03:46:28;;;;;;;121.67;62.37;;;3.60;51.40;;;;;;5067739;28;20652;-88
2023/12/02 03:48:54;;;;;;;131.10;61.87;;;3.60;51.40;;;;;;5088297;28;20183;-89
2023/12/02 03:51:29;;;;;;;118.23;60.37;;;3.60;51.40;;;;;;5068727;28;20177;-88
2023/12/02 03:53:55;;;;;;;129.20;62.53;;;3.50;51.40;;;;;;5069074;28;20196;-88
2023/12/02 03:56:22;;;;;;;135.80;62.53;;;3.60;51.50;;;;;;5069355;28;20232;-88
2023/12/02 03:58:48;;;;;;;138.90;63.80;;;3.60;51.40;;;;;;5072623;28;20217;-89
2023/12/02 04:01:15;;;;;;;133.90;61.67;;;3.50;51.20;;;;;;5084530;28;20212;-88
2023/12/02 04:03:42;;;;;;;127.13;63.47;;;3.50;51.30;;;;;;5092151;28;20192;-88
2023/12/02 04:06:08;;;;;;;129.40;62.33;;;3.60;51.50;;;;;;5068322;28;20191;-88
2023/12/02 04:08:34;;;;;;;135.37;61.60;;;3.60;51.50;;;;;;5084838;28;20177;-88
2023/12/02 04:11:00;;;;;;;134.80;62.47;;;3.50;51.10;;;;;;5085125;28;20207;-87
2023/12/02 04:13:26;;;;;;;118.63;59.87;;;3.50;51.10;;;;;;5087112;28;20216;-87
2023/12/02 04:15:51;;;;;;;130.73;62.03;;;3.50;51.40;;;;;;5087060;28;20185;-88
2023/12/02 04:18:17;;;;;;;126.27;61.70;;;3.50;51.60;;;;;;5092610;28;20555;-88
2023/12/02 04:20:43;;;;;;;132.20;62.17;;;3.60;51.60;;;;;;5098729;28;20196;-87
2023/12/02 04:23:09;;;;;;;131.50;61.57;;;3.60;51.70;;;;;;5102030;28;20179;-87
2023/12/02 04:25:36;;;;;;;130.73;61.73;;;3.60;51.70;;;;;;5098162;28;20189;-87
2023/12/02 04:28:02;;;;;;;133.50;61.07;;;3.60;51.70;;;;;;5085866;28;20189;-87
2023/12/02 04:30:27;;;;;;;128.70;62.47;;;3.60;51.50;;;;;;5068189;28;20177;-87
2023/12/02 04:32:53;;;;;;;123.97;60.30;;;3.60;51.50;;;;;;5075391;28;20633;-88
2023/12/02 04:35:19;;;;;;;131.80;61.53;;;3.70;51.60;;;;;;5101197;28;20212;-87
2023/12/02 04:37:45;;;;;;;126.37;60.27;;;3.70;51.70;;;;;;5074078;28;20231;-89
2023/12/02 04:40:11;;;;;;;128.10;60.93;;;3.70;51.70;;;;;;5101256;28;20191;-91
2023/12/02 04:42:38;;;;;;;124.60;60.77;;;3.80;51.70;;;;;;5099641;28;20180;-88
2023/12/02 04:45:05;;;;;;;126.37;60.93;;;3.60;51.60;;;;;;5095559;28;20252;-88
2023/12/02 04:47:31;;;;;;;125.37;59.27;;;3.60;51.70;;;;;;5100287;28;20211;-88
2023/12/02 04:49:57;;;;;;;124.37;62.13;;;3.70;51.70;;;;;;5097631;28;21326;-88
2023/12/02 04:52:23;;;;;;;125.90;57.13;;;3.70;51.70;;;;;;5081389;28;20265;-88
2023/12/02 04:54:49;;;;;;;113.23;58.57;;;3.70;51.60;;;;;;5086806;28;20575;-88
2023/12/02 04:57:15;;;;;;;121.53;59.17;;;3.80;51.60;;;;;;5081286;28;20220;-88
2023/12/02 04:59:41;;;;;;;121.13;59.10;;;3.80;51.60;;;;;;5076405;28;20184;-87
2023/12/02 05:02:07;;;;;;;136.40;61.57;;;3.80;51.60;;;;;;5074936;28;20184;-88
2023/12/02 05:04:33;;;;;;;129.00;58.20;;;3.70;51.40;;;;;;5099661;28;20188;-87
2023/12/02 05:06:58;;;;;;;125.97;58.20;;;3.60;51.40;;;;;;5086422;28;20177;-87
2023/12/02 05:09:24;;;;;;;121.00;59.03;;;3.60;51.40;;;;;;5078046;28;20540;-87
2023/12/02 05:11:51;;;;;;;119.63;55.73;;;3.60;51.40;;;;;;5092758;28;20181;-88
2023/12/02 05:14:17;;;;;;;126.17;56.63;;;3.60;51.60;;;;;;5076153;28;20187;-88
2023/12/02 05:16:43;;;;;;;124.70;56.80;;;3.60;51.70;;;;;;5100450;28;20216;-87
2023/12/02 05:19:09;;;;;;;119.73;54.63;;;3.80;52.00;;;;;;5082234;28;20602;-88
2023/12/02 05:21:38;;;;;;;121.53;54.87;;;3.80;51.90;;;;;;5078522;28;20177;-88
2023/12/02 05:24:04;;;;;;;116.30;54.60;;;3.90;52.00;;;;;;5086629;28;20194;-88
2023/12/02 05:26:29;;;;;;;123.30;56.23;;;3.80;51.80;;;;;;5071640;28;20187;-92
2023/12/02 05:28:55;;;;;;;120.33;54.30;;;3.70;51.80;;;;;;5102753;28;20196;-87
2023/12/02 05:31:21;;;;;;;124.53;55.57;;;3.80;51.90;;;;;;5101914;28;20208;-87
2023/12/02 05:33:47;;;;;;;123.37;56.07;;;3.80;52.10;;;;;;5098042;28;20263;-87
2023/12/02 05:36:13;;;;;;;117.97;55.03;;;3.80;52.10;;;;;;5088896;28;20178;-87
2023/12/02 05:38:39;;;;;;;120.03;55.43;;;3.80;52.10;;;;;;5078170;28;20220;-87
2023/12/02 05:41:05;;;;;;;112.90;51.33;;;3.90;52.10;;;;;;5101000;28;20715;-88
2023/12/02 05:43:31;;;;;;;119.10;54.70;;;3.90;52.00;;;;;;5093028;28;20265;-89
2023/12/02 05:45:57;;;;;;;118.67;53.57;;;3.80;52.00;;;;;;5083239;28;20176;-88
2023/12/02 05:48:22;;;;;;;120.57;53.67;;;3.90;52.00;;;;;;5086541;28;20194;-90
2023/12/02 05:50:48;;;;;;;116.23;52.77;;;3.80;52.00;;;;;;5075274;28;20195;-88
2023/12/02 05:53:14;;;;;;;107.40;51.10;;;3.80;51.90;;;;;;5081893;28;20180;-88
2023/12/02 05:55:40;;;;;;;110.17;51.43;;;3.90;52.10;;;;;;5084946;28;20248;-88
2023/12/02 05:58:05;;;;;;;111.93;52.70;;;3.90;52.00;;;;;;5087219;28;20205;-89
2023/12/02 06:00:32;;;;;;;115.80;52.57;;;3.90;52.00;;;;;;5072115;28;20206;-89
2023/12/02 06:02:57;;;;;;;118.00;53.73;;;3.90;51.90;;;;;;5084825;28;20225;-87
2023/12/02 06:05:23;;;;;;;115.73;51.97;;;4.00;52.10;;;;;;5084548;28;20180;-89
2023/12/02 06:07:49;;;;;;;112.17;51.93;;;4.00;52.00;;;;;;5099632;28;20184;-88
2023/12/02 06:10:15;;;;;;;110.37;52.53;;;4.00;52.00;;;;;;5079871;28;20191;-87
2023/12/02 06:12:40;;;;;;;105.93;50.83;;;4.00;51.90;;;;;;5087346;28;20328;-87
2023/12/02 06:15:10;;;;;;;113.63;53.80;;;3.90;51.80;;;;;;5091097;28;20555;-92
2023/12/02 06:17:36;;;;;;;112.77;52.57;;;3.90;51.90;;;;;;5100707;28;20304;-89
2023/12/02 06:20:02;;;;;;;117.23;51.50;;;3.90;52.10;;;;;;5096266;28;20214;-88
2023/12/02 06:22:28;;;;;;;121.30;54.60;;;3.90;52.20;;;;;;5082794;28;20206;-88
2023/12/02 06:24:54;;;;;;;116.33;54.00;;;4.00;52.10;;;;;;5087450;28;20174;-87
2023/12/02 06:27:20;;;;;;;110.20;51.67;;;4.00;52.10;;;;;;5080383;28;20192;-88
2023/12/02 06:29:48;;;;;;;113.37;51.83;;;4.00;52.10;;;;;;5087501;28;20177;-91
2023/12/02 06:32:14;;;;;;;111.60;52.03;;;4.00;52.10;;;;;;5068603;28;20184;-92
2023/12/02 06:34:40;;;;;;;111.27;52.20;;;4.10;52.40;;;;;;5087333;28;20524;-91
2023/12/02 06:37:05;;;;;;;110.73;50.77;;;4.00;52.30;;;;;;5072363;28;20213;-91
2023/12/02 06:39:31;;;;;;;117.87;51.43;;;4.10;52.20;;;;;;5072455;28;20264;-89
2023/12/02 06:41:57;;;;;;;103.03;48.93;;;4.00;52.00;;;;;;5090568;28;20609;-93
2023/12/02 06:44:22;;;;;;;106.73;49.90;;;4.00;52.00;;;;;;5082977;28;20199;-92
2023/12/02 06:46:48;;;;;;;96.73;46.07;;;4.00;52.10;;;;;;5063300;28;20195;-88
2023/12/02 06:49:14;;;;;;;101.33;47.67;;;4.00;52.10;;;;;;5084116;28;20272;-89
2023/12/02 06:51:39;;;;;;;89.00;42.87;;;4.00;52.10;;;;;;5073150;28;20555;-90
2023/12/02 06:54:14;;;;;;;88.73;43.20;;;4.00;52.10;;;;;;5084985;28;20663;-90
2023/12/02 06:56:41;;;;;;;93.83;42.13;;;4.00;52.10;;;;;;5086433;28;20224;-90
2023/12/02 06:59:07;;;;;;;88.20;42.60;;;3.90;52.20;;;;;;5057798;28;20217;-90
2023/12/02 07:01:33;;;;;;;91.53;42.53;;;4.00;52.30;;;;;;5082535;28;20176;-90
2023/12/02 07:04:00;;;;;;;89.77;42.77;;;4.00;52.20;;;;;;5069880;28;20268;-91
2023/12/02 07:06:27;;;;;;;85.90;41.67;;;4.10;52.30;;;;;;5069050;28;20181;-90
2023/12/02 07:08:54;;;;;;;86.80;41.00;;;4.00;52.20;;;;;;5073700;28;20196;-91
2023/12/02 07:11:20;;;;;;;76.63;38.47;;;4.00;52.20;;;;;;5082768;28;20195;-91
2023/12/02 07:13:46;;;;;;;79.83;37.67;;;4.00;52.20;;;;;;5052337;28;20571;-91
2023/12/02 07:16:12;;;;;;;74.87;35.13;;;4.00;52.20;;;;;;5080260;28;20180;-90
2023/12/02 07:18:39;;;;;;;64.30;33.17;;;4.00;52.20;;;;;;5078834;28;20683;-91
2023/12/02 07:21:05;;;;;;;64.83;35.07;;;4.00;52.20;;;;;;5083537;28;20185;-91
2023/12/02 07:23:31;;;;;;;68.47;33.47;;;4.00;52.20;;;;;;5083464;28;20185;-91
2023/12/02 07:25:57;;;;;;;66.20;33.37;;;4.00;52.30;;;;;;5068724;28;20247;-91
2023/12/02 07:28:23;;;;;;;69.30;34.67;;;4.10;52.30;;;;;;5069920;28;20177;-91
2023/12/02 07:30:49;;;;;;;67.47;34.73;;;4.10;52.20;;;;;;5071439;28;20195;-91
2023/12/02 07:34:06;;;;;;;64.83;33.50;;;4.10;52.10;;;;;;5071217;28;20586;-91
2023/12/02 07:36:31;;;;;;;64.90;33.40;;;4.00;52.10;;;;;;5080342;28;20284;-91
2023/12/02 07:38:57;;;;;;;66.87;36.07;;;4.00;52.20;;;;;;5086295;28;20702;-90
2023/12/02 07:41:22;;;;;;;69.57;35.30;;;4.00;52.20;;;;;;5083100;28;20193;-91
2023/12/02 07:43:48;;;;;;;70.33;35.30;;;4.10;52.20;;;;;;5088550;28;20685;-91
2023/12/02 07:46:14;;;;;;;66.87;34.30;;;4.00;52.20;;;;;;5088889;28;20184;-90
2023/12/02 07:48:39;;;;;;;65.03;31.70;;;4.00;52.30;;;;;;5086746;28;20594;-91
2023/12/02 07:51:06;;;;;;;58.43;30.93;;;4.00;52.30;;;;;;5085318;28;20281;-91
2023/12/02 07:53:32;;;;;;;59.43;30.13;;;4.00;52.40;;;;;;5071837;28;20230;-91
2023/12/02 07:55:57;;;;;;;52.57;29.17;;;4.10;52.40;;;;;;5070314;28;20216;-90
2023/12/02 07:58:23;;;;;;;54.47;29.27;;;3.90;52.20;;;;;;5070932;28;20212;-90
2023/12/02 08:00:49;;;;;;;57.70;30.90;;;4.10;52.30;;;;;;5070890;28;20207;-90
2023/12/02 08:03:14;;;;;;;60.40;29.97;;;4.10;52.30;;;;;;5079536;28;20192;-91
2023/12/02 08:05:40;;;;;;;59.13;30.90;;;4.10;52.90;;;;;;5058295;28;20211;-90
2023/12/02 08:08:05;;;;;;;57.40;29.50;;;4.10;52.40;;;;;;5070498;28;20556;-91
2023/12/02 08:10:31;;;;;;;59.67;30.80;;;4.20;52.50;;;;;;5083408;28;20187;-90
2023/12/02 08:12:57;;;;;;;58.13;31.13;;;4.20;52.40;;;;;;5080484;28;20529;-91
2023/12/02 08:15:22;;;;;;;62.97;31.30;;;4.20;52.40;;;;;;5084002;28;20173;-91
2023/12/02 08:17:49;;;;;;;61.93;31.60;;;4.20;52.30;;;;;;5086628;28;20220;-91
2023/12/02 08:20:14;;;;;;;63.07;31.80;;;4.20;52.40;;;;;;5070712;28;20188;-90
2023/12/02 08:22:40;;;;;;;62.17;31.50;;;4.20;52.40;;;;;;5071752;28;20187;-90
2023/12/02 08:25:07;;;;;;;59.00;32.17;;;4.20;52.50;;;;;;5086232;28;20272;-91
2023/12/02 08:27:32;;;;;;;56.23;30.37;;;4.30;52.50;;;;;;5076493;28;20181;-91
2023/12/02 08:29:58;;;;;;;63.87;32.13;;;4.20;52.40;;;;;;5058272;28;20184;-91
2023/12/02 08:32:24;;;;;;;59.33;31.57;;;4.30;52.40;;;;;;5086226;28;20189;-91
2023/12/02 08:34:49;;;;;;;65.83;32.00;;;4.20;52.30;;;;;;5076255;28;20257;-91
2023/12/02 08:37:15;;;;;;;60.40;32.90;;;4.40;52.50;;;;;;5070179;28;20612;-91
2023/12/02 08:39:40;;;;;;;59.73;30.63;;;4.20;52.40;;;;;;5078107;28;20185;-90
2023/12/02 08:42:06;;;;;;;63.27;31.73;;;4.30;52.50;;;;;;5084343;28;20173;-91
2023/12/02 08:44:32;;;;;;;60.93;31.50;;;4.40;52.50;;;;;;5083959;28;20208;-91
2023/12/02 08:47:00;;;;;;;58.17;30.43;;;4.40;52.50;;;;;;5055382;28;20618;-90
2023/12/02 08:49:26;;;;;;;60.10;30.77;;;4.30;52.40;;;;;;5073166;28;20177;-91
2023/12/02 08:51:52;;;;;;;58.30;29.37;;;4.40;52.40;;;;;;5086033;28;20204;-91
2023/12/02 08:54:26;;;;;;;58.90;30.37;;;4.30;52.30;;;;;;5084515;28;20598;-90
2023/12/02 08:56:52;;;;;;;57.13;30.43;;;4.50;52.50;;;;;;5057757;28;20846;-90
2023/12/02 08:59:18;;;;;;;55.10;29.13;;;4.30;52.50;;;;;;5069206;28;20280;-91
2023/12/02 09:01:43;;;;;;;53.33;30.07;;;4.40;52.60;;;;;;5084832;28;20180;-91
2023/12/02 09:04:09;;;;;;;59.57;30.90;;;4.40;52.50;;;;;;5070655;28;20816;-91
2023/12/02 09:06:35;;;;;;;63.10;32.80;;;4.40;52.50;;;;;;5084070;28;20188;-91
2023/12/02 09:09:01;;;;;;;60.50;32.47;;;4.40;52.50;;;;;;5083176;28;20194;-91
2023/12/02 09:11:26;;;;;;;57.63;30.60;;;4.40;52.60;;;;;;5070080;28;20181;-91
2023/12/02 09:13:52;;;;;;;57.23;29.27;;;4.40;52.60;;;;;;5067993;28;20575;-90
2023/12/02 09:16:35;;;;;;;62.97;30.20;;;4.50;52.70;;;;;;5080049;28;20209;-90
2023/12/02 09:19:20;;;;;;;58.07;29.77;;;4.50;52.80;;;;;;5083870;28;20222;-91
2023/12/02 09:21:46;;;;;;;58.57;29.97;;;4.50;52.70;;;;;;5049347;28;20182;-90
2023/12/02 09:24:34;;;;;;;56.87;29.77;;;4.60;52.80;;;;;;5073988;28;20268;-91
2023/12/02 09:27:01;;;;;;;56.27;29.00;;;4.50;52.70;;;;;;5073712;28;20256;-91
2023/12/02 09:29:34;;;;;;;57.50;29.80;;;4.50;52.50;;;;;;5071454;28;20178;-90
2023/12/02 09:32:27;;;;;;;57.63;30.17;;;4.50;52.60;;;;;;5073405;28;20177;-91
2023/12/02 09:34:58;;;;;;;59.60;31.93;;;4.50;52.60;;;;;;5085753;28;20178;-90
2023/12/02 09:37:51;;;;;;;58.97;30.50;;;4.50;52.60;;;;;;5073297;28;20925;-89
2023/12/02 09:40:26;;;;;;;53.80;30.23;;;4.50;52.60;;;;;;5076261;28;20558;-86
2023/12/02 09:43:32;;;;;;;53.07;29.13;;;4.60;52.70;;;;;;5077184;28;20189;-88
2023/12/02 09:46:24;;;;;;;58.43;29.10;;;4.50;52.70;;;;;;4971218;28;20192;-90
2023/12/02 09:49:11;;;;;;;56.03;29.17;;;4.60;52.80;;;;;;4976511;28;20191;-91
2023/12/02 09:51:57;;;;;;;57.77;28.53;;;4.60;52.80;;;;;;4974281;28;20188;-91
2023/12/02 09:54:50;;;;;;;55.87;28.93;;;4.60;53.00;;;;;;4973773;28;20719;-91
2023/12/02 09:57:25;;;;;;;58.87;28.47;;;4.60;53.00;;;;;;4974051;28;20211;-90
2023/12/02 10:00:19;;;;;;;52.27;28.10;;;4.70;53.00;;;;;;4973968;28;20648;-93
2023/12/02 10:03:16;;;;;;;60.33;28.07;;;4.70;52.90;;;;;;4972979;28;20226;-91
2023/12/02 10:05:52;;;;;;;58.03;28.77;;;4.70;53.00;;;;;;4990649;28;20680;-93
2023/12/02 10:08:33;;;;;;;54.20;27.40;;;4.70;53.00;;;;;;4975759;28;20172;-93
2023/12/02 10:11:11;;;;;;;53.53;28.67;;;4.70;52.90;;;;;;4976432;28;20180;-91
2023/12/02 10:13:49;;;;;;;55.10;28.43;;;4.70;53.70;;;;;;4975333;28;20649;-91
2023/12/02 10:16:19;;;;;;;58.93;28.73;;;4.80;53.20;;;;;;4973248;28;20188;-93
2023/12/02 10:18:53;;;;;;;53.17;27.70;;;4.80;53.20;;;;;;4976156;28;20215;-92
2023/12/02 10:21:21;;;;;;;52.80;28.00;;;4.80;53.20;;;;;;5085638;28;20169;-92
2023/12/02 10:23:57;;;;;;;56.77;29.53;;;4.90;53.30;;;;;;5064195;28;20261;-90
2023/12/02 10:26:28;;;;;;;61.90;29.43;;;4.90;53.30;;;;;;5088044;28;20176;-89
2023/12/02 10:29:10;;;;;;;47.93;27.80;;;4.90;53.10;;;;;;5066523;28;20271;-91
2023/12/02 10:31:51;;;;;;;56.83;28.87;;;4.90;53.10;;;;;;5068032;28;20213;-92
2023/12/02 10:34:46;;;;;;;58.17;28.40;;;4.90;53.20;;;;;;5070377;28;20177;-92
2023/12/02 10:37:13;;;;;;;59.30;30.43;;;5.00;53.20;;;;;;5063379;28;20663;-92
2023/12/02 10:39:51;;;;;;;57.80;29.60;;;5.00;53.00;;;;;;5064855;28;20234;-91
2023/12/02 10:42:36;;;;;;;54.53;29.33;;;4.90;53.00;;;;;;5057801;28;20178;-93
2023/12/02 10:45:07;;;;;;;57.97;29.13;;;5.00;53.20;;;;;;5070199;28;20219;-92
2023/12/02 10:47:33;;;;;;;49.03;26.97;;;5.00;53.20;;;;;;5088229;28;20176;-93
2023/12/02 10:50:00;;;;;;;52.13;28.87;;;5.10;53.10;;;;;;5070077;28;20173;-90
2023/12/02 10:52:28;;;;;;;55.73;28.47;;;5.00;53.00;;;;;;5069747;28;20770;-90
2023/12/02 10:54:58;;;;;;;54.90;28.30;;;5.00;53.00;;;;;;5070591;28;20241;-91
2023/12/02 10:57:26;;;;;;;56.10;28.80;;;5.10;53.20;;;;;;5069811;28;20625;-89
2023/12/02 11:00:06;;;;;;;57.50;29.17;;;5.10;53.20;;;;;;5088090;28;20181;-92
2023/12/02 11:02:38;;;;;;;55.07;28.63;;;5.10;53.20;;;;;;5070183;28;20177;-93
2023/12/02 11:05:19;;;;;;;54.87;31.30;;;5.20;53.20;;;;;;5069337;28;20573;-91
2023/12/02 11:07:52;;;;;;;59.07;31.10;;;5.20;53.10;;;;;;5060959;28;20543;-90
2023/12/02 11:10:34;;;;;;;53.93;29.57;;;5.20;53.10;;;;;;5087538;28;20193;-90
2023/12/02 11:13:04;;;;;;;57.60;30.17;;;5.20;53.10;;;;;;5060250;28;20184;-91
2023/12/02 11:15:37;;;;;;;63.03;32.43;;;5.20;53.10;;;;;;5087009;28;20268;-92
2023/12/02 11:18:04;;;;;;;68.03;36.93;;;5.20;53.00;;;;;;5070404;28;20207;-93
2023/12/02 11:21:01;;;;;;;79.70;39.97;;;5.20;52.80;;;;;;5067883;28;20526;-90
2023/12/02 11:24:04;;;;;;;76.87;38.57;;;5.20;53.00;;;;;;5068382;28;20226;-92
2023/12/02 11:26:43;;;;;;;77.63;39.07;;;5.20;52.90;;;;;;5067457;28;20536;-93
2023/12/02 11:29:08;;;;;;;75.33;39.43;;;5.20;52.90;;;;;;5063017;28;20214;-92
2023/12/02 11:31:43;;;;;;;78.93;41.13;;;5.20;53.00;;;;;;5071081;28;20185;-93
2023/12/02 11:34:27;;;;;;;78.70;39.40;;;5.20;52.80;;;;;;5086820;28;20267;-88
2023/12/02 11:37:22;;;;;;;75.87;39.00;;;5.20;52.80;;;;;;5064616;28;20691;-90
2023/12/02 11:40:42;;;;;;;75.77;38.07;;;5.10;52.90;;;;;;5069237;28;20235;-90
2023/12/02 11:43:41;;;;;;;78.30;40.07;;;5.20;53.60;;;;;;5023069;28;20191;-91
2023/12/02 11:46:15;;;;;;;82.80;40.20;;;5.20;52.90;;;;;;5066589;28;20177;-90
2023/12/02 11:49:06;;;;;;;82.20;40.03;;;5.20;52.90;;;;;;5085359;28;20684;-91
2023/12/02 11:51:50;;;;;;;80.10;41.60;;;5.10;52.80;;;;;;5054792;28;20280;-89
2023/12/02 11:54:37;;;;;;;85.27;42.50;;;5.10;53.00;;;;;;5081839;28;20169;-90
2023/12/02 11:57:13;;;;;;;74.90;40.13;;;5.20;53.00;;;;;;5064984;28;20212;-90
2023/12/02 12:00:03;;;;;;;80.70;41.17;;;5.20;53.00;;;;;;5069902;28;20537;-85
2023/12/02 12:02:56;;;;;;;71.80;39.13;;;5.20;53.00;;;;;;5078015;28;20174;-90
2023/12/02 12:05:25;;;;;;;83.73;40.23;;;5.20;53.00;;;;;;5064904;28;20234;-87
2023/12/02 12:08:18;;;;;;;76.60;40.67;;;5.10;52.80;;;;;;5081020;28;20178;-90
2023/12/02 12:10:46;;;;;;;74.40;41.13;;;5.20;53.00;;;;;;5080691;28;20189;-88
2023/12/02 12:13:12;;;;;;;68.47;38.93;;;5.20;52.90;;;;;;5085725;28;20189;-88
2023/12/02 12:15:38;;;;;;;70.60;39.57;;;5.10;52.80;;;;;;5069962;28;20189;-91
2023/12/02 12:18:04;;;;;;;70.17;39.10;;;5.20;53.00;;;;;;5081190;28;20197;-91
2023/12/02 12:20:32;;;;;;;81.53;42.43;;;5.10;52.80;;;;;;5068410;28;20185;-91
2023/12/02 12:23:00;;;;;;;81.00;42.13;;;5.00;52.90;;;;;;5074643;28;20646;-91
2023/12/02 12:25:31;;;;;;;81.50;45.67;;;5.20;53.00;;;;;;5088477;28;20202;-92
2023/12/02 12:28:06;;;;;;;78.27;42.70;;;5.20;53.10;;;;;;5087240;28;20194;-91
2023/12/02 12:30:43;;;;;;;79.00;43.40;;;5.20;53.00;;;;;;5083850;28;20187;-87
2023/12/02 12:33:15;;;;;;;83.80;45.30;;;5.20;52.80;;;;;;5088039;28;20177;-91
2023/12/02 12:35:42;;;;;;;80.20;42.93;;;5.20;52.70;;;;;;5074203;28;20180;-91
2023/12/02 12:38:10;;;;;;;84.30;44.97;;;5.20;52.80;;;;;;5071478;28;20205;-95
2023/12/02 12:40:37;;;;;;;87.13;45.70;;;5.20;52.80;;;;;;5071140;28;20189;-89
2023/12/02 12:43:03;;;;;;;92.67;46.93;;;5.20;52.90;;;;;;5059535;28;20961;-92